Time;durP1;ratioP1;P1;durP2;ratioP2;P2;SDS_P1;SDS_P2;PMS_P1;PMS_P2;Temp;Humidity;BMP_temperature;BMP_pressure;BME280_temperature;BME280_humidity;BME280_pressure;Samples;Min_cycle;Max_cycle;Signal;HPM_P1;HPM_P2
2023/11/14 09:55:03;;;;;;;6.43;2.10;;;;;;;11.77;93.21;98189.13;5120896;28;20592;-82
2023/11/14 09:57:34;;;;;;;6.50;2.10;;;;;;;12.38;91.75;98208.19;5132337;27;40263;-83
2023/11/14 10:00:18;;;;;;;6.63;1.50;;;;;;;12.74;86.98;98191.06;5090775;28;40649;-85
2023/11/14 10:02:46;;;;;;;5.20;1.47;;;;;;;13.07;85.08;98195.44;5124135;27;41790;-84
2023/11/14 10:08:04;;;;;;;4.93;1.67;;;;;;;13.50;83.08;98221.09;5090661;28;39180;-83
2023/11/14 10:10:34;;;;;;;3.47;1.30;;;;;;;13.89;81.59;98252.31;5124314;27;42078;-82
2023/11/14 10:13:02;;;;;;;6.53;1.83;;;;;;;13.74;80.74;98219.00;5108689;28;42322;-83
2023/11/14 10:15:30;;;;;;;4.00;1.50;;;;;;;14.15;80.39;98259.88;5091419;28;42481;-83
2023/11/14 10:17:59;;;;;;;7.17;1.60;;;;;;;14.10;78.14;98238.13;5125522;27;40396;-83
2023/11/14 10:20:38;;;;;;;6.63;1.57;;;;;;;14.20;78.37;98231.03;5091242;28;44110;-83
2023/11/14 10:23:07;;;;;;;8.43;1.53;;;;;;;14.25;78.11;98234.13;5091399;28;42752;-84
2023/11/14 10:25:37;;;;;;;4.87;1.30;;;;;;;14.26;77.38;98238.47;5108114;27;42453;-83
2023/11/14 10:28:06;;;;;;;6.20;1.30;;;;;;;14.31;76.97;98233.59;5091369;28;40428;-83
2023/11/14 10:30:49;;;;;;;7.53;1.60;;;;;;;14.34;77.48;98228.03;5108668;28;42404;-83
2023/11/14 10:33:17;;;;;;;4.73;1.60;;;;;;;14.34;76.42;98244.81;5091409;28;42821;-82
2023/11/14 10:35:45;;;;;;;7.97;1.63;;;;;;;14.33;76.34;98232.50;5107971;28;42221;-84
2023/11/14 10:38:17;;;;;;;3.83;1.20;;;;;;;14.44;76.44;98234.25;5124769;27;39636;-84
2023/11/14 10:40:47;;;;;;;6.13;1.47;;;;;;;14.37;75.92;98230.38;5124070;27;42442;-85
2023/11/14 10:43:15;;;;;;;4.03;1.03;;;;;;;14.38;76.03;98245.41;5089050;28;41843;-84
2023/11/14 10:45:45;;;;;;;5.10;1.20;;;;;;;14.34;75.40;98247.47;5106935;28;43447;-85
2023/11/14 10:48:21;;;;;;;3.60;1.23;;;;;;;14.37;75.32;98265.00;5089625;28;39148;-82
2023/11/14 10:50:49;;;;;;;5.83;1.73;;;;;;;14.44;75.67;98260.88;5106083;28;40742;-83
2023/11/14 10:53:17;;;;;;;5.67;1.30;;;;;;;14.37;75.37;98254.34;5089471;28;41564;-85
2023/11/14 10:55:48;;;;;;;4.93;1.33;;;;;;;14.32;75.89;98235.28;5089715;28;41490;-84
2023/11/14 10:58:17;;;;;;;5.67;1.20;;;;;;;14.13;75.31;98209.41;5107935;28;40448;-83
2023/11/14 11:00:45;;;;;;;6.93;1.53;;;;;;;14.24;75.09;98229.78;5089507;28;42503;-84
2023/11/14 11:03:15;;;;;;;9.27;1.70;;;;;;;14.36;75.64;98236.69;5089630;28;43558;-84
2023/11/14 11:05:43;;;;;;;4.73;1.40;;;;;;;14.29;75.31;98214.25;5112106;27;41280;-84
2023/11/14 11:08:12;;;;;;;4.57;1.80;;;;;;;14.32;75.16;98209.50;5076296;28;38788;-85
2023/11/14 11:10:42;;;;;;;4.10;1.47;;;;;;;14.34;74.91;98207.53;5075848;28;41431;-84
2023/11/14 11:13:15;;;;;;;5.30;1.50;;;;;;;14.43;75.18;98229.91;5077289;28;42175;-86
2023/11/14 11:15:44;;;;;;;4.73;1.93;;;;;;;14.41;74.42;98210.53;5076167;28;42504;-85
2023/11/14 11:18:12;;;;;;;2.77;1.43;;;;;;;14.23;74.23;98177.50;5110637;28;39199;-84
2023/11/14 11:20:39;;;;;;;4.47;1.30;;;;;;;14.43;73.63;98184.59;5076236;28;41366;-85
2023/11/14 11:23:12;;;;;;;5.33;1.40;;;;;;;14.56;73.27;98190.53;5110602;28;41787;-85
2023/11/14 11:25:41;;;;;;;5.20;1.40;;;;;;;14.59;73.33;98168.06;5076563;28;41335;-84
2023/11/14 11:28:39;;;;;;;7.37;1.60;;;;;;;14.70;72.68;98195.47;5076945;28;39253;-84
2023/11/14 11:31:14;;;;;;;4.53;1.33;;;;;;;14.74;72.64;98186.19;5093275;28;40789;-84
2023/11/14 11:33:42;;;;;;;3.97;1.50;;;;;;;14.72;72.31;98190.81;5076859;28;41951;-84
2023/11/14 11:36:30;;;;;;;6.70;1.70;;;;;;;14.76;72.31;98175.41;5076245;28;42539;-84
2023/11/14 11:39:01;;;;;;;5.13;1.50;;;;;;;14.80;71.86;98175.97;5090615;28;41537;-85
2023/11/14 11:41:32;;;;;;;4.67;1.40;;;;;;;14.82;71.63;98169.53;5075352;28;42259;-85
2023/11/14 11:44:13;;;;;;;3.53;1.27;;;;;;;14.99;70.97;98186.63;5075000;28;43371;-85
2023/11/14 11:46:45;;;;;;;6.53;1.33;;;;;;;15.14;71.16;98184.41;5075262;28;41352;-84
2023/11/14 11:49:30;;;;;;;3.27;1.23;;;;;;;15.28;70.29;98189.31;5109186;28;40688;-84
2023/11/14 11:52:16;;;;;;;4.00;1.23;;;;;;;15.12;69.22;98157.03;5075509;28;42248;-83
2023/11/14 11:54:47;;;;;;;4.87;1.70;;;;;;;15.15;69.40;98159.41;5075171;28;41877;-84
2023/11/14 11:57:22;;;;;;;3.67;1.37;;;;;;;15.02;69.67;98138.38;5075393;28;41770;-85
2023/11/14 12:00:23;;;;;;;4.37;1.73;;;;;;;15.10;69.52;98162.50;5075722;28;38946;-84
2023/11/14 12:02:53;;;;;;;4.50;1.70;;;;;;;15.09;69.91;98152.81;5074826;28;42311;-86
2023/11/14 12:05:23;;;;;;;4.93;1.60;;;;;;;15.25;70.38;98154.91;5075101;28;41814;-85
2023/11/14 12:07:51;;;;;;;5.83;1.40;;;;;;;15.36;70.48;98152.09;5074840;28;41241;-85
2023/11/14 12:10:18;;;;;;;4.00;1.53;;;;;;;15.45;69.13;98146.72;5075137;28;39010;-85
2023/11/14 12:12:47;;;;;;;3.90;1.40;;;;;;;15.48;68.62;98134.09;5109890;28;40716;-84
2023/11/14 12:15:17;;;;;;;4.33;1.50;;;;;;;15.59;67.91;98157.97;5094173;28;43819;-86
2023/11/14 12:17:51;;;;;;;4.90;1.60;;;;;;;15.54;67.28;98166.41;5091995;28;42469;-83
2023/11/14 12:20:20;;;;;;;5.80;1.40;;;;;;;15.45;68.54;98144.06;5093063;28;39195;-84
2023/11/14 12:22:49;;;;;;;5.50;1.60;;;;;;;15.44;68.94;98129.06;5092585;28;40580;-86
2023/11/14 12:25:22;;;;;;;4.83;1.40;;;;;;;15.59;68.49;98141.94;5075518;28;41935;-85
2023/11/14 12:27:58;;;;;;;3.63;1.33;;;;;;;15.45;68.42;98098.69;5109717;28;43365;-85
2023/11/14 12:30:26;;;;;;;1.87;0.80;;;;;;;15.54;68.53;98117.50;5074954;28;40631;-86
2023/11/14 12:33:06;;;;;;;3.80;1.50;;;;;;;15.57;68.17;98117.25;5074153;28;40797;-89
2023/11/14 12:38:32;;;;;;;6.27;1.40;;;;;;;15.63;67.96;98106.84;5073783;28;42138;-85
2023/11/14 12:41:17;;;;;;;4.43;1.50;;;;;;;15.58;67.68;98092.25;5101614;27;40355;-86
2023/11/14 12:43:46;;;;;;;5.43;1.33;;;;;;;15.60;67.72;98103.59;5115329;27;40449;-85
2023/11/14 12:46:21;;;;;;;3.60;1.10;;;;;;;15.37;67.97;98071.06;5097689;27;43361;-83
2023/11/14 12:49:19;;;;;;;2.27;1.30;;;;;;;15.47;67.95;98090.53;5115414;27;41102;-87
2023/11/14 12:52:06;;;;;;;4.03;1.77;;;;;;;15.47;67.87;98095.88;5132441;27;41016;-85
2023/11/14 12:54:34;;;;;;;6.87;1.50;;;;;;;15.38;68.20;98081.59;5133663;27;40533;-85
2023/11/14 12:57:01;;;;;;;3.67;1.20;;;;;;;15.38;67.97;98080.75;5136628;27;42653;-85
2023/11/14 12:59:31;;;;;;;2.83;1.20;;;;;;;15.27;68.46;98073.75;5127230;27;42649;-86
2023/11/14 13:01:59;;;;;;;4.20;1.30;;;;;;;15.21;68.23;98078.81;5098275;27;39795;-85
2023/11/14 13:04:33;;;;;;;4.63;1.40;;;;;;;15.12;69.03;98071.69;5097791;27;42002;-84
2023/11/14 13:07:01;;;;;;;2.67;1.13;;;;;;;15.01;68.78;98072.69;5114694;27;41781;-85
2023/11/14 13:09:30;;;;;;;8.60;1.43;;;;;;;14.92;69.19;98068.22;5114721;27;41758;-86
2023/11/14 13:11:57;;;;;;;3.57;1.30;;;;;;;15.00;69.19;98065.66;5115411;27;40024;-85
2023/11/14 13:14:25;;;;;;;3.47;1.20;;;;;;;15.02;69.92;98075.22;5115403;27;43416;-85
2023/11/14 13:16:53;;;;;;;2.30;0.90;;;;;;;14.93;69.81;98059.25;5115847;27;42302;-84
2023/11/14 13:19:20;;;;;;;4.80;1.20;;;;;;;14.98;69.86;98072.97;5115707;27;42262;-85
2023/11/14 13:21:50;;;;;;;6.63;1.60;;;;;;;15.01;70.13;98056.69;5115601;27;38996;-86
2023/11/14 15:48:40;;;;;;;3.20;1.63;;;;;;;10.99;98.54;97915.25;5129393;27;20558;-83
2023/11/14 15:51:08;;;;;;;5.70;1.10;;;;;;;11.52;96.79;97940.91;5128005;27;40172;-85
2023/11/14 15:53:36;;;;;;;3.23;1.47;;;;;;;11.96;93.14;97922.38;5111209;27;40868;-84
2023/11/14 16:01:42;;;;;;;4.53;1.33;;;;;;;12.87;85.74;97941.13;5173825;27;41272;-83
2023/11/14 16:04:11;;;;;;;4.13;1.10;;;;;;;12.92;84.29;97930.94;5119701;27;41183;-85
2023/11/14 16:06:38;;;;;;;1.43;0.87;;;;;;;12.74;83.06;97860.81;5135557;27;42462;-84
2023/11/14 16:09:08;;;;;;;2.27;0.97;;;;;;;12.99;81.90;97892.22;5152190;27;42230;-84
2023/11/14 16:11:35;;;;;;;3.47;1.67;;;;;;;13.21;81.19;97923.97;5118416;27;39491;-84
